Time;durP1;ratioP1;P1;durP2;ratioP2;P2;SDS_P1;SDS_P2;PMS_P1;PMS_P2;Temp;Humidity;BMP_temperature;BMP_pressure;BME280_temperature;BME280_humidity;BME280_pressure;Samples;Min_cycle;Max_cycle;Signal;HPM_P1;HPM_P2
2021/12/30 14:23:08;;;;;;;14.87;4.33;;;;;;;-142.75;100.00;77182.53;5103908;27;20335;-67
2021/12/30 14:25:36;;;;;;;16.17;4.95;;;;;;;-142.75;100.00;77176.63;5103751;28;20459;-65
2021/12/30 14:28:18;;;;;;;12.82;4.78;;;;;;;-142.75;100.00;77178.59;5103667;28;20024;-67
2021/12/30 14:30:43;;;;;;;12.40;3.78;;;;;;;-142.75;100.00;77170.72;5101481;28;20157;-67
2021/12/30 14:33:23;;;;;;;9.60;3.33;;;;;;;-142.75;100.00;77178.59;5103674;28;20107;-67
2021/12/30 14:36:06;;;;;;;14.05;4.15;;;;;;;-142.75;100.00;77180.56;5103816;28;20027;-67
2021/12/30 14:38:32;;;;;;;13.70;3.25;;;;;;;-142.75;100.00;77176.63;5103488;28;20103;-67
2021/12/30 14:41:10;;;;;;;16.50;3.40;;;;;;;-142.75;100.00;77176.63;5102637;28;20107;-67
2021/12/30 14:44:04;;;;;;;12.32;3.00;;;;;;;-142.75;100.00;77178.59;5104335;28;20385;-67
2021/12/30 14:46:30;;;;;;;9.57;2.53;;;;;;;-142.75;100.00;77184.50;5103455;28;20044;-67
2021/12/30 14:49:02;;;;;;;14.35;3.10;;;;;;;-142.75;100.00;77172.69;5102275;28;20115;-66
2021/12/30 14:51:33;;;;;;;10.07;2.90;;;;;;;-142.75;100.00;77182.53;5102706;28;20425;-67
2021/12/30 14:54:00;;;;;;;12.13;3.10;;;;;;;-142.75;100.00;77192.38;5103242;28;20024;-67
2021/12/30 14:56:25;;;;;;;11.48;2.72;;;;;;;-142.75;100.00;77196.31;5110882;28;20023;-67
2021/12/30 14:58:50;;;;;;;8.88;2.63;;;;;;;-142.75;100.00;77192.38;5123119;28;20019;-67
2021/12/30 15:01:16;;;;;;;;;;;;;;;-142.75;100.00;77198.28;5118223;27;20411;-66
2021/12/30 15:03:41;;;;;;;10.52;2.30;;;;;;;-142.75;100.00;77196.31;5108865;28;19919;-67
2021/12/30 15:06:06;;;;;;;;;;;;;;;-142.75;100.00;77192.38;5103288;28;20015;-68
2021/12/30 15:08:32;;;;;;;13.73;3.03;;;;;;;-142.75;100.00;77200.25;5125069;27;20292;-67
2021/12/30 15:10:58;;;;;;;9.20;2.33;;;;;;;-142.75;100.00;77212.06;5124812;27;20019;-66
2021/12/30 15:13:23;;;;;;;15.70;2.40;;;;;;;-142.75;100.00;77204.19;5115631;27;20034;-67
2021/12/30 15:15:49;;;;;;;;;;;;;;;-142.75;100.00;77204.19;5106009;28;20055;-68
2021/12/30 15:18:14;;;;;;;11.00;2.45;;;;;;;-142.75;100.00;77198.28;5105254;28;19918;-67
2021/12/30 15:20:40;;;;;;;10.70;2.53;;;;;;;-142.75;100.00;77200.25;5103177;28;20027;-68
2021/12/30 15:23:06;;;;;;;8.98;2.30;;;;;;;-142.75;100.00;77210.09;5105228;28;20028;-67
2021/12/30 15:25:32;;;;;;;;;;;;;;;-142.75;100.00;77214.03;5105480;27;20026;-67
2021/12/30 15:27:58;;;;;;;11.23;2.55;;;;;;;-142.75;100.00;77219.94;5105299;28;20339;-67
2021/12/30 15:30:25;;;;;;;13.80;2.50;;;;;;;-142.75;100.00;77216.00;5104198;28;20019;-67
2021/12/30 15:32:54;;;;;;;15.27;3.10;;;;;;;-142.75;100.00;77229.78;5101126;28;20381;-67
2021/12/30 15:35:23;;;;;;;13.40;2.75;;;;;;;-142.75;100.00;77210.09;5090175;28;20028;-67
2021/12/30 15:37:50;;;;;;;9.13;2.45;;;;;;;-142.75;100.00;77219.94;5091714;28;20027;-67
2021/12/30 15:40:16;;;;;;;14.95;2.88;;;;;;;-142.75;100.00;77217.97;5089483;28;20016;-67
2021/12/30 15:42:42;;;;;;;7.70;2.45;;;;;;;-142.75;100.00;77225.84;5095877;28;20046;-67
2021/12/30 15:45:09;;;;;;;11.07;2.75;;;;;;;-142.75;100.00;77233.72;5108525;28;20485;-67
2021/12/30 15:47:34;;;;;;;11.10;3.00;;;;;;;-142.75;100.00;77231.75;5109469;28;20027;-67
2021/12/30 15:50:00;;;;;;;10.20;2.80;;;;;;;-142.75;100.00;77241.59;5108378;28;20054;-66
2021/12/30 15:52:25;;;;;;;;;;;;;;;-142.75;100.00;77243.56;5109217;28;20556;-67
2021/12/30 15:54:50;;;;;;;8.55;2.70;;;;;;;-142.75;100.00;77251.44;5108767;28;19919;-67
2021/12/30 15:57:16;;;;;;;;;;;;;;;-142.75;100.00;77247.50;5108963;28;20114;-67
2021/12/30 15:59:41;;;;;;;12.50;3.00;;;;;;;-142.75;100.00;77247.50;5107908;28;20794;-65
2021/12/30 16:02:09;;;;;;;;;;;;;;;-142.75;100.00;77249.47;5108783;28;20027;-66
2021/12/30 16:04:34;;;;;;;;;;;;;;;-142.75;100.00;77259.31;5109440;28;20281;-65
2021/12/30 16:07:02;;;;;;;17.98;3.60;;;;;;;-142.75;100.00;77261.28;5108235;28;19916;-66
2021/12/30 16:09:27;;;;;;;12.40;3.72;;;;;;;-142.75;100.00;77277.03;5108978;28;20077;-66
2021/12/30 16:11:52;;;;;;;15.95;4.72;;;;;;;-142.75;100.00;77273.09;5108036;28;20419;-66
2021/12/30 16:14:18;;;;;;;18.67;4.55;;;;;;;-142.75;100.00;77275.06;5108519;27;20028;-67
2021/12/30 16:16:43;;;;;;;;;;;;;;;-142.75;100.00;77284.91;5088602;28;20020;-66
2021/12/30 16:19:08;;;;;;;18.63;5.13;;;;;;;-142.75;100.00;77284.91;5088056;28;20345;-69
2021/12/30 16:21:37;;;;;;;20.88;4.95;;;;;;;-142.75;100.00;77288.84;5087157;28;20043;-66
2021/12/30 16:24:03;;;;;;;13.02;4.10;;;;;;;-142.75;100.00;77300.66;5087807;28;20107;-67
2021/12/30 16:26:28;;;;;;;16.27;5.00;;;;;;;-142.75;100.00;77308.53;5087727;28;20042;-67
2021/12/30 16:28:53;;;;;;;;;;;;;;;-142.75;100.00;77312.47;5087193;28;20028;-66
2021/12/30 16:31:19;;;;;;;15.18;5.65;;;;;;;-142.75;100.00;77298.69;5084939;28;19948;-66
2021/12/30 16:33:44;;;;;;;;;;;;;;;-142.75;100.00;77318.38;5087804;28;20038;-67
2021/12/30 16:36:10;;;;;;;19.45;5.47;;;;;;;-142.75;100.00;77314.44;5086887;28;19977;-66
2021/12/30 16:38:35;;;;;;;;;;;;;;;-142.75;100.00;77316.41;5086649;28;20032;-66
2021/12/30 16:41:02;;;;;;;24.25;5.38;;;;;;;-142.75;100.00;77312.47;5085148;28;19995;-66
2021/12/30 16:43:27;;;;;;;20.75;5.68;;;;;;;-142.75;100.00;77318.38;5087515;28;20082;-67
2021/12/30 16:45:55;;;;;;;29.35;5.72;;;;;;;-142.75;100.00;77320.34;5085948;28;20505;-66
2021/12/30 16:48:21;;;;;;;21.90;4.68;;;;;;;-142.75;100.00;77314.44;5086689;28;20023;-65
2021/12/30 16:50:46;;;;;;;25.38;4.75;;;;;;;-142.75;100.00;77320.34;5086539;28;20031;-67
2021/12/30 16:53:13;;;;;;;15.40;4.13;;;;;;;-142.75;100.00;77314.44;5086808;28;20024;-67
2021/12/30 16:55:39;;;;;;;20.92;3.95;;;;;;;-142.75;100.00;77320.34;5085447;28;20023;-66
2021/12/30 16:58:05;;;;;;;12.73;3.42;;;;;;;-142.75;100.00;77314.44;5086955;28;20509;-66
2021/12/30 17:00:33;;;;;;;17.88;3.70;;;;;;;-142.75;100.00;77310.50;5084541;28;20054;-66
2021/12/30 17:03:01;;;;;;;17.88;3.55;;;;;;;-142.75;100.00;77308.53;5086566;28;20052;-66
2021/12/30 17:05:26;;;;;;;15.85;3.65;;;;;;;-142.75;100.00;77302.63;5086388;28;20027;-67
2021/12/30 17:07:51;;;;;;;17.73;4.20;;;;;;;-142.75;100.00;77304.59;5101740;28;20031;-66
2021/12/30 17:10:17;;;;;;;;;;;;;;;-142.75;100.00;77292.78;5105990;28;20546;-67
2021/12/30 17:12:43;;;;;;;13.52;2.80;;;;;;;-142.75;100.00;77294.75;5104762;28;20011;-66
2021/12/30 17:15:13;;;;;;;13.50;3.17;;;;;;;-142.75;100.00;77286.88;5085583;28;20020;-68
2021/12/30 17:17:39;;;;;;;18.30;3.20;;;;;;;-142.75;100.00;77284.91;5086439;28;20593;-67
2021/12/30 17:20:06;;;;;;;13.25;3.20;;;;;;;-142.75;100.00;77282.94;5085629;28;20713;-67
2021/12/30 17:22:31;;;;;;;7.63;3.00;;;;;;;-142.75;100.00;77277.03;5100400;28;20059;-67
2021/12/30 17:24:57;;;;;;;8.43;2.42;;;;;;;-142.75;100.00;77271.13;5106338;28;20071;-66
2021/12/30 17:27:22;;;;;;;13.50;3.03;;;;;;;-142.75;100.00;77263.25;5104987;28;20023;-66
2021/12/30 17:29:47;;;;;;;11.20;2.22;;;;;;;-142.75;100.00;77279.00;5105799;28;20508;-66
2021/12/30 17:32:14;;;;;;;10.13;2.17;;;;;;;-142.75;100.00;77269.16;5104736;28;20377;-67
2021/12/30 17:34:39;;;;;;;14.25;2.40;;;;;;;-142.75;100.00;77269.16;5106210;28;20050;-67
2021/12/30 17:37:05;;;;;;;9.50;2.92;;;;;;;-142.75;100.00;77269.16;5104703;28;20054;-67
2021/12/30 17:39:30;;;;;;;;;;;;;;;-142.75;100.00;77263.25;5099466;28;20024;-66
2021/12/30 17:41:56;;;;;;;19.13;2.80;;;;;;;-142.75;100.00;77263.25;5085418;28;19961;-66
2021/12/30 17:44:21;;;;;;;8.98;2.63;;;;;;;-142.75;100.00;77271.13;5085222;28;20509;-65
2021/12/30 17:46:47;;;;;;;13.00;3.60;;;;;;;-142.75;100.00;77267.19;5085946;28;20027;-66
2021/12/30 17:49:12;;;;;;;13.80;3.45;;;;;;;-142.75;100.00;77273.09;5085912;28;20024;-65
2021/12/30 17:51:38;;;;;;;14.40;3.10;;;;;;;-142.75;100.00;77282.94;5084054;28;20053;-66
2021/12/30 17:54:04;;;;;;;;;;;;;;;-142.75;100.00;77284.91;5086292;28;20039;-66
2021/12/30 17:56:29;;;;;;;14.15;2.80;;;;;;;-142.75;100.00;77290.81;5087053;28;19920;-67
2021/12/30 17:58:55;;;;;;;16.90;2.78;;;;;;;-142.75;100.00;77282.94;5084685;28;20039;-67
2021/12/30 18:01:20;;;;;;;;;;;;;;;-142.75;100.00;77296.72;5084079;28;20489;-67
2021/12/30 18:03:46;;;;;;;19.38;3.10;;;;;;;-142.75;100.00;77286.88;5084746;28;20002;-67
2021/12/30 18:06:12;;;;;;;17.38;2.55;;;;;;;-142.75;100.00;77286.88;5085546;28;20114;-67
2021/12/30 18:08:38;;;;;;;17.90;8.77;;;;;;;-142.75;100.00;77284.91;5085858;28;20099;-66
2021/12/30 18:11:03;;;;;;;;;;;;;;;-142.75;100.00;77292.78;5085693;28;20032;-68
2021/12/30 18:13:29;;;;;;;20.35;3.42;;;;;;;-142.75;100.00;77302.63;5084675;28;19919;-67
2021/12/30 18:15:54;;;;;;;;;;;;;;;-142.75;100.00;77292.78;5094293;28;20031;-67
2021/12/30 18:18:20;;;;;;;20.58;3.25;;;;;;;-142.75;100.00;77310.50;5105848;28;19916;-67
2021/12/30 18:20:46;;;;;;;20.10;3.33;;;;;;;-142.75;100.00;77302.63;5104576;28;20493;-67
2021/12/30 18:23:11;;;;;;;;;;;;;;;-142.75;100.00;77294.75;5099767;28;20038;-67
2021/12/30 18:25:37;;;;;;;24.90;4.22;;;;;;;-142.75;100.00;77300.66;5089960;28;19912;-66
2021/12/30 18:28:02;;;;;;;;;;;;;;;-142.75;100.00;77304.59;5084558;28;20024;-66
2021/12/30 18:30:29;;;;;;;22.58;4.25;;;;;;;-142.75;100.00;77304.59;5081116;28;19969;-66
2021/12/30 18:32:54;;;;;;;19.45;4.03;;;;;;;-142.75;100.00;77312.47;5083500;28;20047;-66
2021/12/30 18:35:21;;;;;;;16.23;3.70;;;;;;;-142.75;100.00;77312.47;5083869;28;20048;-66
2021/12/30 18:37:47;;;;;;;17.35;3.50;;;;;;;-142.75;100.00;77312.47;5085240;28;20032;-66
2021/12/30 18:40:14;;;;;;;22.60;3.33;;;;;;;-142.75;100.00;77318.38;5100945;28;20034;-67
2021/12/30 18:42:40;;;;;;;21.42;3.80;;;;;;;-142.75;100.00;77314.44;5105129;28;20028;-66
2021/12/30 18:45:06;;;;;;;;;;;;;;;-142.75;100.00;77326.25;5088869;28;20050;-67
2021/12/30 18:47:31;;;;;;;27.85;4.50;;;;;;;-142.75;100.00;77322.31;5095807;28;19911;-66
2021/12/30 18:49:56;;;;;;;19.92;3.97;;;;;;;-142.75;100.00;77326.25;5104535;28;20107;-67
2021/12/30 18:52:25;;;;;;;;;;;;;;;-142.75;100.00;77324.28;5103863;28;20012;-68
2021/12/30 18:54:51;;;;;;;15.25;3.83;;;;;;;-142.75;100.00;77322.31;5102634;28;20377;-66
2021/12/30 18:57:17;;;;;;;13.30;3.33;;;;;;;-142.75;100.00;77314.44;5104137;28;20034;-66
2021/12/30 18:59:44;;;;;;;;;;;;;;;-142.75;100.00;77318.38;5104703;28;20038;-66
2021/12/30 19:02:11;;;;;;;20.70;3.13;;;;;;;-142.75;100.00;77314.44;5103072;28;19966;-66
2021/12/30 19:04:37;;;;;;;15.35;3.88;;;;;;;-142.75;100.00;77330.19;5103732;28;20106;-66
2021/12/30 19:07:03;;;;;;;;;;;;;;;-142.75;100.00;77326.25;5091295;28;20028;-65
2021/12/30 19:09:29;;;;;;;24.13;3.60;;;;;;;-142.75;100.00;77320.34;5086358;28;19919;-67
2021/12/30 19:11:59;;;;;;;20.77;3.90;;;;;;;-142.75;100.00;77334.13;5088556;28;20107;-67
2021/12/30 19:14:25;;;;;;;19.52;4.63;;;;;;;-142.75;100.00;77334.13;5107037;28;20028;-66
2021/12/30 19:16:52;;;;;;;19.42;4.65;;;;;;;-142.75;100.00;77334.13;5107490;28;20031;-66
2021/12/30 19:19:18;;;;;;;20.50;4.35;;;;;;;-142.75;100.00;77340.03;5108811;28;20071;-67
2021/12/30 19:21:43;;;;;;;21.45;4.53;;;;;;;-142.75;100.00;77336.09;5106245;28;20028;-66
2021/12/30 19:24:09;;;;;;;22.42;3.85;;;;;;;-142.75;100.00;77334.13;5107045;28;20031;-66
2021/12/30 19:26:34;;;;;;;;;;;;;;;-142.75;100.00;77322.31;5108783;28;20484;-67
2021/12/30 19:28:59;;;;;;;24.42;4.15;;;;;;;-142.75;100.00;77326.25;5108688;28;19942;-66
2021/12/30 19:31:25;;;;;;;24.08;3.78;;;;;;;-142.75;100.00;77334.13;5107495;28;20071;-67
2021/12/30 19:33:50;;;;;;;;;;;;;;;-142.75;100.00;77322.31;5109058;28;20045;-67
2021/12/30 19:36:16;;;;;;;13.25;3.05;;;;;;;-142.75;100.00;77322.31;5108080;28;20002;-67
2021/12/30 19:38:43;;;;;;;19.30;4.00;;;;;;;-142.75;100.00;77320.34;5108513;28;20489;-66
2021/12/30 19:41:10;;;;;;;14.13;4.07;;;;;;;-142.75;100.00;77310.50;5107618;28;20107;-67
2021/12/30 19:43:41;;;;;;;16.67;3.55;;;;;;;-142.75;100.00;77306.56;5107059;28;20088;-67
2021/12/30 19:46:07;;;;;;;17.58;3.00;;;;;;;-142.75;100.00;77290.81;5108079;28;20023;-67
2021/12/30 19:48:32;;;;;;;14.73;2.90;;;;;;;-142.75;100.00;77294.75;5106434;28;20019;-67
2021/12/30 19:50:58;;;;;;;14.90;3.72;;;;;;;-142.75;100.00;77282.94;5106529;28;20062;-66
2021/12/30 19:53:23;;;;;;;;;;;;;;;-142.75;100.00;77279.00;5107994;28;20031;-66
2021/12/30 19:55:49;;;;;;;17.48;2.92;;;;;;;-142.75;100.00;77282.94;5107386;28;19964;-67
2021/12/30 19:58:14;;;;;;;;;;;;;;;-142.75;100.00;77277.03;5107794;28;20069;-66
2021/12/30 20:00:47;;;;;;;16.27;2.95;;;;;;;-142.75;100.00;77279.00;5107122;28;19919;-66
2021/12/30 20:03:16;;;;;;;14.25;3.17;;;;;;;-142.75;100.00;77275.06;5085905;28;20486;-67
2021/12/30 20:05:42;;;;;;;16.00;2.13;;;;;;;-142.75;100.00;77267.19;5086839;28;20044;-66
2021/12/30 20:08:09;;;;;;;15.27;2.20;;;;;;;-142.75;100.00;77261.28;5086919;28;20103;-65
2021/12/30 20:10:34;;;;;;;14.73;2.70;;;;;;;-142.75;100.00;77265.22;5085068;28;20028;-66
2021/12/30 20:13:00;;;;;;;15.35;3.58;;;;;;;-142.75;100.00;77271.13;5086764;28;20020;-66
2021/12/30 20:15:27;;;;;;;11.82;2.67;;;;;;;-142.75;100.00;77255.38;5087166;28;20504;-66
2021/12/30 20:17:52;;;;;;;12.23;2.60;;;;;;;-142.75;100.00;77261.28;5087327;28;20024;-66
2021/12/30 20:20:18;;;;;;;12.93;2.33;;;;;;;-142.75;100.00;77265.22;5086212;28;20035;-67
2021/12/30 20:22:48;;;;;;;10.27;1.98;;;;;;;-142.75;100.00;77263.25;5084413;28;20034;-67
2021/12/30 20:25:17;;;;;;;12.90;2.38;;;;;;;-142.75;100.00;77261.28;5086664;28;20075;-67
2021/12/30 20:27:42;;;;;;;14.88;2.58;;;;;;;-142.75;100.00;77273.09;5085321;28;20486;-67
2021/12/30 20:30:12;;;;;;;9.43;2.30;;;;;;;-142.75;100.00;77263.25;5087016;28;20081;-66
2021/12/30 20:32:39;;;;;;;12.50;2.17;;;;;;;-142.75;100.00;77249.47;5087183;28;20050;-67
2021/12/30 20:35:05;;;;;;;13.63;2.22;;;;;;;-142.75;100.00;77255.38;5086908;28;20105;-67
2021/12/30 20:37:30;;;;;;;13.07;2.45;;;;;;;-142.75;100.00;77247.50;5098666;28;20024;-66
2021/12/30 20:39:56;;;;;;;16.42;2.60;;;;;;;-142.75;100.00;77249.47;5086460;28;20347;-67
2021/12/30 20:42:21;;;;;;;20.25;3.30;;;;;;;-142.75;100.00;77239.63;5086966;28;20114;-66
2021/12/30 20:44:47;;;;;;;12.48;2.47;;;;;;;-142.75;100.00;77247.50;5087571;28;20500;-67
2021/12/30 20:47:12;;;;;;;;;;;;;;;-142.75;100.00;77247.50;5085669;28;20070;-67
2021/12/30 20:49:37;;;;;;;17.15;3.13;;;;;;;-142.75;100.00;77255.38;5086455;28;19911;-65
2021/12/30 20:52:05;;;;;;;;;;;;;;;-142.75;100.00;77251.44;5086978;28;20051;-67
2021/12/30 20:54:34;;;;;;;14.15;2.97;;;;;;;-142.75;100.00;77265.22;5086778;28;19916;-66
2021/12/30 20:57:01;;;;;;;10.63;2.63;;;;;;;-142.75;100.00;77267.19;5086494;28;20028;-67
2021/12/30 20:59:27;;;;;;;12.23;2.60;;;;;;;-142.75;100.00;77269.16;5087218;28;20075;-66
2021/12/30 21:01:52;;;;;;;14.80;2.50;;;;;;;-142.75;100.00;77277.03;5095161;28;20091;-67
2021/12/30 21:04:18;;;;;;;;;;;;;;;-142.75;100.00;77279.00;5107394;28;20034;-66
2021/12/30 21:06:44;;;;;;;13.43;2.53;;;;;;;-142.75;100.00;77284.91;5105302;28;19911;-67
2021/12/30 21:09:10;;;;;;;10.75;2.58;;;;;;;-142.75;100.00;77280.97;5105303;28;20027;-66
2021/12/30 21:11:36;;;;;;;15.90;2.85;;;;;;;-142.75;100.00;77294.75;5106130;28;20051;-67
2021/12/30 21:14:02;;;;;;;;;;;;;;;-142.75;100.00;77277.03;5107511;28;20104;-66
2021/12/30 21:16:28;;;;;;;11.45;2.85;;;;;;;-142.75;100.00;77286.88;5106413;28;19919;-67
2021/12/30 21:18:54;;;;;;;14.02;2.72;;;;;;;-142.75;100.00;77286.88;5106588;28;20045;-67
2021/12/30 21:21:22;;;;;;;13.38;2.60;;;;;;;-142.75;100.00;77279.00;5104756;28;20431;-67
2021/12/30 21:23:52;;;;;;;7.32;2.95;;;;;;;-142.75;100.00;77284.91;5086385;28;20032;-67
2021/12/30 21:26:18;;;;;;;10.65;2.30;;;;;;;-142.75;100.00;77282.94;5086213;28;20421;-66
2021/12/30 21:28:46;;;;;;;;;;;;;;;-142.75;100.00;77288.84;5085538;28;20038;-67
2021/12/30 21:31:14;;;;;;;12.93;2.92;;;;;;;-142.75;100.00;77286.88;5084183;28;19923;-66
2021/12/30 21:33:40;;;;;;;13.07;2.92;;;;;;;-142.75;100.00;77282.94;5086378;28;20049;-67
2021/12/30 21:36:05;;;;;;;9.65;2.75;;;;;;;-142.75;100.00;77286.88;5086866;28;20066;-67
2021/12/30 21:38:30;;;;;;;;;;;;;;;-142.75;100.00;77286.88;5086197;28;20401;-67
2021/12/30 21:40:56;;;;;;;8.52;2.65;;;;;;;-142.75;100.00;77290.81;5085206;28;19916;-67
2021/12/30 21:43:22;;;;;;;;;;;;;;;-142.75;100.00;77290.81;5086849;28;20119;-66
2021/12/30 21:45:47;;;;;;;9.73;2.90;;;;;;;-142.75;100.00;77294.75;5085597;28;19957;-66
2021/12/30 21:48:13;;;;;;;12.68;2.65;;;;;;;-142.75;100.00;77286.88;5086273;28;20113;-67
2021/12/30 21:50:38;;;;;;;10.20;2.50;;;;;;;-142.75;100.00;77292.78;5085493;28;20107;-67
2021/12/30 21:53:04;;;;;;;11.88;2.50;;;;;;;-142.75;100.00;77288.84;5085834;28;20101;-67
2021/12/30 21:55:31;;;;;;;9.52;2.83;;;;;;;-142.75;100.00;77296.72;5086131;28;20024;-66
2021/12/30 21:57:57;;;;;;;11.43;3.28;;;;;;;-142.75;100.00;77290.81;5086118;28;20047;-66
2021/12/30 22:00:23;;;;;;;13.82;3.58;;;;;;;-142.75;100.00;77302.63;5085573;28;20386;-67
2021/12/30 22:02:50;;;;;;;12.52;3.15;;;;;;;-142.75;100.00;77294.75;5083261;28;20024;-66
2021/12/30 22:05:18;;;;;;;11.02;3.40;;;;;;;-142.75;100.00;77290.81;5084707;28;20118;-67
2021/12/30 22:07:44;;;;;;;7.22;2.80;;;;;;;-142.75;100.00;77298.69;5084573;28;20028;-67
2021/12/30 22:10:10;;;;;;;10.25;3.05;;;;;;;-142.75;100.00;77304.59;5083898;28;20031;-67
2021/12/30 22:12:36;;;;;;;10.70;3.13;;;;;;;-142.75;100.00;77308.53;5085090;28;20016;-66
2021/12/30 22:15:02;;;;;;;10.27;2.97;;;;;;;-142.75;100.00;77310.50;5086506;28;20032;-66
2021/12/30 22:17:28;;;;;;;13.32;3.13;;;;;;;-142.75;100.00;77302.63;5085843;28;20058;-67
2021/12/30 22:19:53;;;;;;;11.43;2.80;;;;;;;-142.75;100.00;77306.56;5082535;28;20074;-67
2021/12/30 22:22:18;;;;;;;7.30;3.13;;;;;;;-142.75;100.00;77310.50;5080085;28;20698;-67
2021/12/30 22:24:44;;;;;;;17.52;4.43;;;;;;;-142.75;100.00;77310.50;5085562;28;20460;-66
2021/12/30 22:27:09;;;;;;;;;;;;;;;-142.75;100.00;77310.50;5084845;28;20020;-66
2021/12/30 22:29:34;;;;;;;14.57;3.53;;;;;;;-142.75;100.00;77314.44;5085471;28;19920;-67
2021/12/30 22:32:00;;;;;;;;;;;;;;;-142.75;100.00;77320.34;5085140;28;20452;-66
2021/12/30 22:34:26;;;;;;;6.88;3.03;;;;;;;-142.75;100.00;77330.19;5085550;28;19912;-66
2021/12/30 22:36:51;;;;;;;;;;;;;;;-142.75;100.00;77322.31;5086287;28;20028;-66
2021/12/30 22:39:16;;;;;;;13.18;2.75;;;;;;;-142.75;100.00;77314.44;5084499;28;19916;-66
2021/12/30 22:41:42;;;;;;;8.95;2.83;;;;;;;-142.75;100.00;77316.41;5085278;28;20474;-66
2021/12/30 22:44:07;;;;;;;13.80;3.58;;;;;;;-142.75;100.00;77308.53;5088334;28;20020;-66
